This is the latest recevied weather packets stored in our database for station/object KC1HBM. If no packets are shown the sender has not sent any weather packets the latest 10 day(s).
| Time | Temp. | Humidity | Pressure | Rain* | Wind** | Luminosity | Snow |
|---|---|---|---|---|---|---|---|
| 1778170141 | 13.89° C | 71% | 1003.4 hPa | 0 mm | - | 789 W/m² | - |
| 1778169836 | 13.89° C | 70% | 1003.5 hPa | 0 mm | - | 111 W/m² | - |
| 1778169533 | 13.89° C | 68% | 1003.8 hPa | 0 mm | - | 110 W/m² | - |
| 1778169229 | 13.33° C | 69% | 1003.6 hPa | 0 mm | - | 440 W/m² | - |
| 1778168925 | 13.89° C | 67% | 1003.8 hPa | 0 mm | - | 122 W/m² | - |
| 1778168625 | 15° C | - | - | 0 mm | - | - | - |
| 1778168623 | 15° C | 68% | 1003.4 hPa | 0 mm | - | 158 W/m² | - |
| 1778168320 | 14.44° C | 68% | 1003.4 hPa | 0 mm | - | 98 W/m² | - |
| 1778168138 | 15° C | 69% | 1003.6 hPa | 0 mm | - | 143 W/m² | - |
| 1778168016 | 15° C | 69% | 1003.6 hPa | 0 mm | - | 143 W/m² | - |
| 1778167880 | 15° C | 67% | 1003.6 hPa | 0 mm | - | 822 W/m² | - |
| 1778167729 | 16.11° C | 66% | 1003.8 hPa | 0 mm | - | 796 W/m² | - |
| 1778167713 | 15° C | 67% | 1003.6 hPa | 0 mm | - | 822 W/m² | - |
| 1778167409 | 16.11° C | 66% | 1003.8 hPa | 0 mm | - | 796 W/m² | - |
| 1778167214 | 15° C | 71% | 1003.7 hPa | 0 mm | - | 774 W/m² | - |
| 1778167105 | 15° C | 71% | 1003.7 hPa | 0 mm | - | 774 W/m² | - |
| 1778166802 | 15.56° C | 69% | 1003.8 hPa | 0 mm | - | 223 W/m² | - |
| 1778166499 | 17.78° C | 63% | 1003.6 hPa | 0 mm | - | 712 W/m² | - |
| 1778166195 | 18.33° C | 49% | 1003.5 hPa | 0 mm | - | 787 W/m² | - |
| 1778165891 | 17.78° C | 56% | 1003.5 hPa | 0 mm | - | 716 W/m² | - |
| 1778165588 | 17.22° C | 55% | 1003.9 hPa | 0 mm | - | 726 W/m² | - |
| 1778165285 | 16.11° C | 66% | 1003.7 hPa | 0 mm | - | 505 W/m² | - |
| 1778164982 | 16.11° C | 64% | 1003.7 hPa | 0 mm | - | 104 W/m² | - |
| 1778164679 | 16.11° C | 67% | 1003.8 hPa | 0 mm | - | 775 W/m² | - |
| 1778164376 | 17.78° C | 59% | 1003.7 hPa | 0 mm | - | 183 W/m² | - |
* Rain latest hour (hover to see other rain measurements)
** Current wind speed in m/s (hover to see current wind gust speed)